Time;durP1;ratioP1;P1;durP2;ratioP2;P2;SDS_P1;SDS_P2;PMS_P1;PMS_P2;Temp;Humidity;BMP_temperature;BMP_pressure;BME280_temperature;BME280_humidity;BME280_pressure;Samples;Min_cycle;Max_cycle;Signal;HPM_P1;HPM_P2
2024/01/05 00:00:29;;;;;;;11.75;8.40;;;;;;;5.63;100.00;99977.69;1013107;29;20049;-51
2024/01/05 00:01:40;;;;;;;17.27;7.72;;;;;;;5.61;100.00;99971.81;1015645;29;20476;-51
2024/01/05 00:02:54;;;;;;;15.52;7.05;;;;;;;5.57;100.00;99969.56;1007627;29;20310;-56
2024/01/05 00:03:52;;;;;;;19.70;7.90;;;;;;;5.58;100.00;99965.09;1009083;29;20041;-50
2024/01/05 00:05:14;;;;;;;17.85;7.78;;;;;;;5.58;100.00;99965.09;1014750;29;20336;-51
2024/01/05 00:06:24;;;;;;;18.55;8.65;;;;;;;5.61;100.00;99958.59;1016551;29;20317;-56
2024/01/05 00:07:30;;;;;;;18.92;9.45;;;;;;;5.63;100.00;99961.84;1013091;29;20309;-56
2024/01/05 00:08:54;;;;;;;16.00;8.85;;;;;;;5.62;100.00;99958.41;1013103;29;20968;-56
2024/01/05 00:11:29;;;;;;;14.95;6.55;;;;;;;5.60;100.00;99955.16;1020966;29;20303;-50
2024/01/05 00:12:31;;;;;;;15.05;9.10;;;;;;;5.56;100.00;99953.94;1022162;29;20319;-56
2024/01/05 00:13:19;;;;;;;22.75;8.32;;;;;;;5.64;100.00;99953.72;1017784;29;20304;-55
2024/01/05 00:14:09;;;;;;;18.48;11.02;;;;;;;5.65;100.00;99947.41;1012001;29;20305;-56
2024/01/05 00:15:33;;;;;;;14.85;8.43;;;;;;;5.68;100.00;99944.34;996862;29;20319;-56
2024/01/05 00:16:44;;;;;;;22.02;8.68;;;;;;;5.67;100.00;99942.72;1003282;29;20386;-55
2024/01/05 00:18:06;;;;;;;20.67;8.50;;;;;;;5.67;100.00;99942.72;1021804;29;20295;-53
2024/01/05 00:19:21;;;;;;;19.42;8.82;;;;;;;5.69;100.00;99937.25;1008061;29;20317;-53
2024/01/05 00:20:41;;;;;;;16.23;9.23;;;;;;;5.64;100.00;99937.84;1011695;29;20309;-55
2024/01/05 00:21:59;;;;;;;18.02;8.80;;;;;;;5.66;100.00;99932.38;1004085;29;20322;-49
2024/01/05 00:23:17;;;;;;;18.88;9.25;;;;;;;5.65;100.00;99926.28;1006438;29;20318;-48
2024/01/05 00:24:22;;;;;;;13.50;6.97;;;;;;;5.60;100.00;99920.81;1017238;29;20327;-54
2024/01/05 00:25:27;;;;;;;18.75;8.48;;;;;;;5.65;100.00;99928.09;1028201;28;20301;-48
2024/01/05 00:27:02;;;;;;;17.90;8.55;;;;;;;5.63;100.00;99924.88;1024042;29;20305;-49
2024/01/05 00:28:06;;;;;;;26.10;11.88;;;;;;;5.57;100.00;99915.94;1024953;29;20305;-55
2024/01/05 00:28:52;;;;;;;13.13;8.30;;;;;;;5.61;100.00;99911.88;1026555;29;20298;-48
2024/01/05 00:30:12;;;;;;;14.25;7.53;;;;;;;5.63;100.00;99912.47;1027368;28;20341;-50
2024/01/05 00:31:13;;;;;;;16.45;8.43;;;;;;;5.61;100.00;99911.88;1012156;28;20325;-46
2024/01/05 00:32:03;;;;;;;22.38;9.68;;;;;;;5.64;100.00;99900.88;1026987;28;20345;-48
2024/01/05 00:32:45;;;;;;;14.57;8.73;;;;;;;5.62;100.00;99902.91;1024840;28;20306;-55
2024/01/05 00:34:01;;;;;;;15.27;8.48;;;;;;;5.65;100.00;99891.13;1022800;28;20311;-47
2024/01/05 00:35:15;;;;;;;18.58;8.52;;;;;;;5.65;100.00;99891.94;1033148;28;20328;-50
2024/01/05 00:36:17;;;;;;;11.90;8.25;;;;;;;5.62;100.00;99891.53;1034362;28;20324;-47
2024/01/05 00:37:13;;;;;;;20.00;9.15;;;;;;;5.62;100.00;99892.34;1025817;28;20318;-54
2024/01/05 00:38:32;;;;;;;19.20;8.70;;;;;;;5.60;100.00;99889.09;1026043;28;20710;-55
2024/01/05 00:39:30;;;;;;;16.77;8.35;;;;;;;5.59;100.00;99890.13;1033252;28;20316;-49
2024/01/05 00:40:25;;;;;;;20.48;7.47;;;;;;;5.56;100.00;99895.81;1037040;28;20311;-52
2024/01/05 00:43:08;;;;;;;13.18;8.52;;;;;;;5.59;100.00;99888.28;1034214;28;20858;-49
2024/01/05 00:43:58;;;;;;;14.20;7.72;;;;;;;5.61;100.00;99885.44;1029481;28;20302;-55
2024/01/05 00:44:54;;;;;;;15.93;7.57;;;;;;;5.57;100.00;99890.34;1033382;28;20046;-47
2024/01/05 00:46:03;;;;;;;11.18;8.00;;;;;;;5.68;100.00;99896.00;1015957;29;20339;-55
2024/01/05 00:47:33;;;;;;;23.08;7.97;;;;;;;5.71;100.00;99899.03;1018808;29;20308;-55
2024/01/05 00:48:53;;;;;;;11.38;8.20;;;;;;;5.75;100.00;99897.63;1027379;28;20766;-55
2024/01/05 00:50:03;;;;;;;17.77;7.95;;;;;;;5.75;100.00;99902.91;1019447;28;20311;-47
2024/01/05 00:50:48;;;;;;;20.90;8.00;;;;;;;5.77;100.00;99892.13;1022009;29;20406;-49
2024/01/05 00:52:02;;;;;;;14.35;6.95;;;;;;;5.75;100.00;99894.13;1017795;29;20319;-55
2024/01/05 00:54:20;;;;;;;14.75;7.05;;;;;;;5.74;100.00;99895.97;1019587;29;20577;-55
2024/01/05 00:55:50;;;;;;;15.68;7.10;;;;;;;5.77;100.00;99898.22;1018235;29;20315;-48
2024/01/05 00:56:47;;;;;;;15.93;7.97;;;;;;;5.79;100.00;99892.72;1018385;29;20304;-47
2024/01/05 00:58:05;;;;;;;16.00;7.90;;;;;;;5.73;100.00;99883.78;1015737;29;20308;-56
2024/01/05 00:59:20;;;;;;;21.88;8.00;;;;;;;5.75;100.00;99879.13;1021049;29;20326;-50
2024/01/05 01:00:16;;;;;;;13.38;7.13;;;;;;;5.79;100.00;99882.97;1015851;29;20736;-47
2024/01/05 01:00:53;;;;;;;19.65;7.47;;;;;;;5.80;100.00;99881.13;1021914;29;20734;-47
2024/01/05 01:01:46;;;;;;;15.88;7.60;;;;;;;5.73;100.00;99878.50;1018090;29;20308;-55
2024/01/05 01:02:41;;;;;;;15.00;7.90;;;;;;;5.67;100.00;99879.31;1012079;29;20304;-56
2024/01/05 01:03:49;;;;;;;;;;;;;;;;;;;;;
2024/01/05 01:05:00;;;;;;;16.17;6.90;;;;;;;5.73;100.00;99872.41;1019937;29;20774;-47
2024/01/05 01:05:49;;;;;;;20.60;8.90;;;;;;;5.76;100.00;99872.00;1013079;29;20353;-47
2024/01/05 01:07:21;;;;;;;10.80;7.25;;;;;;;5.69;100.00;99866.72;1021891;29;20787;-55
2024/01/05 01:08:35;;;;;;;18.65;7.75;;;;;;;5.74;100.00;99872.19;1021022;29;20861;-47
2024/01/05 01:10:01;;;;;;;14.02;7.45;;;;;;;5.77;100.00;99868.34;1019876;29;20295;-55
2024/01/05 01:11:05;;;;;;;17.15;7.13;;;;;;;5.75;100.00;99863.25;1013968;29;20312;-55
2024/01/05 01:12:21;;;;;;;18.45;8.63;;;;;;;5.77;100.00;99855.94;1019779;29;20296;-50
2024/01/05 01:13:45;;;;;;;15.18;9.45;;;;;;;5.77;100.00;99861.22;1031628;28;20302;-52
2024/01/05 01:14:39;;;;;;;12.25;7.80;;;;;;;5.73;100.00;99857.34;1028633;28;20317;-50
2024/01/05 01:15:49;;;;;;;23.45;8.23;;;;;;;5.77;100.00;99858.59;1020133;29;20315;-46
2024/01/05 01:16:34;;;;;;;15.68;8.25;;;;;;;5.78;100.00;99854.09;1022624;29;20449;-55
2024/01/05 01:19:01;;;;;;;14.77;8.10;;;;;;;5.83;100.00;99847.16;1019020;29;20308;-46
2024/01/05 01:19:53;;;;;;;16.30;7.45;;;;;;;5.85;100.00;99844.31;1034150;28;21068;-55
2024/01/05 01:21:05;;;;;;;17.33;7.43;;;;;;;5.86;100.00;99846.75;1032198;28;20846;-50
2024/01/05 01:21:49;;;;;;;19.13;9.15;;;;;;;5.86;100.00;99843.28;1029947;28;20285;-48
2024/01/05 01:22:35;;;;;;;19.55;9.30;;;;;;;5.86;100.00;99844.09;1034380;28;20857;-54
2024/01/05 01:23:52;;;;;;;19.63;8.90;;;;;;;5.82;100.00;99840.25;1026852;28;20404;-51
2024/01/05 01:25:07;;;;;;;16.42;7.97;;;;;;;5.83;100.00;99841.88;1027111;28;20302;-55
2024/01/05 01:26:13;;;;;;;;;;;;;;;5.86;100.00;99825.59;1028131;28;21329;-47
2024/01/05 01:27:23;;;;;;;14.20;6.65;;;;;;;5.84;100.00;99834.75;1029794;28;19926;-48
2024/01/05 01:28:21;;;;;;;13.07;6.85;;;;;;;5.88;100.00;99823.56;1045652;28;20054;-47
2024/01/05 01:29:23;;;;;;;18.95;7.95;;;;;;;5.90;100.00;99826.03;1036566;28;20296;-50
2024/01/05 01:32:46;;;;;;;8.20;6.82;;;;;;;5.95;100.00;99831.47;1044971;28;20608;-48
2024/01/05 01:33:49;;;;;;;14.52;8.52;;;;;;;5.93;100.00;99827.44;1051375;28;20309;-46
2024/01/05 01:34:50;;;;;;;18.83;8.48;;;;;;;5.96;100.00;99832.28;1038983;28;20339;-55
2024/01/05 01:35:47;;;;;;;19.02;9.13;;;;;;;5.94;100.00;99829.06;1030753;28;20298;-47
2024/01/05 01:36:40;;;;;;;17.75;7.97;;;;;;;5.95;100.00;99823.56;1033313;28;20050;-51
2024/01/05 01:37:47;;;;;;;16.13;8.27;;;;;;;5.96;100.00;99824.38;1040001;28;20378;-55
2024/01/05 01:39:07;;;;;;;18.33;7.97;;;;;;;5.95;100.00;99818.28;1037807;28;20292;-46
2024/01/05 01:40:11;;;;;;;14.63;8.32;;;;;;;5.94;100.00;99821.13;1037040;28;20475;-55
2024/01/05 01:41:08;;;;;;;15.70;9.30;;;;;;;5.89;100.00;99809.34;1040390;28;20936;-46
2024/01/05 01:42:05;;;;;;;11.88;6.80;;;;;;;5.90;100.00;99815.44;1036935;28;20312;-56
2024/01/05 01:43:37;;;;;;;17.23;7.70;;;;;;;5.89;100.00;99809.34;1030470;28;20305;-55
2024/01/05 01:44:51;;;;;;;;;;;;;;;;;;;;;
2024/01/05 01:45:57;;;;;;;12.18;7.68;;;;;;;5.82;100.00;99803.28;1040287;28;20409;-55
2024/01/05 01:46:53;;;;;;;17.08;10.05;;;;;;;5.83;100.00;99804.88;1035304;28;20313;-47
2024/01/05 01:47:59;;;;;;;13.40;7.28;;;;;;;5.75;100.00;99807.78;1026475;28;20304;-56
2024/01/05 01:48:57;;;;;;;14.57;8.70;;;;;;;5.79;100.00;99803.69;1028630;28;20313;-47
2024/01/05 01:50:14;;;;;;;15.35;7.35;;;;;;;5.66;100.00;99803.72;1027139;29;20295;-46
2024/01/05 01:51:10;;;;;;;;;;;;;;;5.69;100.00;99792.75;1027470;28;20307;-50
2024/01/05 01:52:22;;;;;;;18.42;7.30;;;;;;;5.63;100.00;99804.16;1033078;28;19905;-55
2024/01/05 01:53:45;;;;;;;14.27;7.50;;;;;;;5.67;100.00;99805.34;1025534;28;20389;-55
2024/01/05 01:54:34;;;;;;;15.07;7.68;;;;;;;5.66;100.00;99793.16;1024422;28;20324;-47
2024/01/05 01:55:39;;;;;;;21.02;7.38;;;;;;;5.73;100.00;99798.41;1020675;29;20299;-48
2024/01/05 01:56:43;;;;;;;19.75;8.18;;;;;;;5.62;100.00;99797.25;1020349;29;20304;-48
2024/01/05 01:57:38;;;;;;;18.98;8.38;;;;;;;5.59;100.00;99802.94;1021025;29;20127;-56
2024/01/05 01:58:50;;;;;;;18.77;9.13;;;;;;;5.61;100.00;99795.63;1019165;29;20337;-54
2024/01/05 02:00:02;;;;;;;;;;;;;;;5.62;100.00;99799.91;1027674;28;20823;-46
2024/01/05 02:00:45;;;;;;;19.17;7.60;;;;;;;5.61;100.00;99798.28;1028795;28;19929;-51
2024/01/05 02:01:59;;;;;;;13.18;7.00;;;;;;;5.61;100.00;99795.63;1016745;29;20067;-46
2024/01/05 02:03:09;;;;;;;12.60;7.10;;;;;;;5.56;100.00;99795.44;1023102;29;20678;-54
2024/01/05 02:04:01;;;;;;;13.13;6.97;;;;;;;5.61;100.00;99795.63;1024068;29;20306;-48
2024/01/05 02:05:12;;;;;;;;;;;;;;;5.62;100.00;99799.09;1023883;29;20322;-47
2024/01/05 02:06:23;;;;;;;16.73;8.30;;;;;;;5.63;100.00;99788.31;1025651;28;19927;-49
2024/01/05 02:07:27;;;;;;;16.90;7.25;;;;;;;5.68;100.00;99780.56;1022058;29;20295;-55
2024/01/05 02:08:32;;;;;;;22.42;8.32;;;;;;;5.74;100.00;99774.41;1023783;29;20315;-48
2024/01/05 02:09:32;;;;;;;15.10;8.55;;;;;;;5.69;100.00;99774.25;1024104;29;20315;-55
2024/01/05 02:10:40;;;;;;;;;;;;;;;;;;;;;
2024/01/05 02:11:29;;;;;;;16.20;7.80;;;;;;;5.71;100.00;99782.78;1026753;28;20329;-48
2024/01/05 02:12:35;;;;;;;14.68;8.25;;;;;;;5.77;100.00;99776.66;1027576;28;20306;-47
2024/01/05 02:15:02;;;;;;;19.65;8.35;;;;;;;5.82;100.00;99774.19;1025112;29;20323;-48
2024/01/05 02:15:48;;;;;;;10.80;8.48;;;;;;;5.81;100.00;99775.22;1022231;29;21065;-49
2024/01/05 02:17:02;;;;;;;13.75;8.73;;;;;;;5.80;100.00;99773.59;1012527;28;20313;-48
2024/01/05 02:17:49;;;;;;;29.85;10.23;;;;;;;5.79;100.00;99771.97;1018970;29;20386;-55
2024/01/05 02:19:03;;;;;;;20.95;8.48;;;;;;;5.79;100.00;99763.25;1012126;29;20746;-47
2024/01/05 02:20:04;;;;;;;10.43;7.35;;;;;;;5.72;100.00;99768.53;1016902;29;20383;-47
2024/01/05 02:21:22;;;;;;;20.17;8.38;;;;;;;5.73;100.00;99767.53;1014235;29;20061;-53
2024/01/05 02:22:38;;;;;;;18.15;8.88;;;;;;;5.69;100.00;99758.41;1025293;28;20301;-48
2024/01/05 02:23:49;;;;;;;20.88;9.23;;;;;;;5.69;100.00;99758.41;1023743;29;20794;-46
2024/01/05 02:24:50;;;;;;;16.35;9.43;;;;;;;5.68;100.00;99746.22;1022707;29;21020;-49
2024/01/05 02:26:00;;;;;;;14.80;7.38;;;;;;;5.79;100.00;99747.41;1031560;28;20298;-47
2024/01/05 02:26:52;;;;;;;18.63;8.45;;;;;;;5.75;100.00;99739.09;1035363;28;20625;-47
2024/01/05 02:27:41;;;;;;;23.15;9.00;;;;;;;5.74;100.00;99742.72;1038389;28;20297;-47
2024/01/05 02:28:33;;;;;;;25.98;9.07;;;;;;;5.73;100.00;99735.81;1040763;28;20443;-47
2024/01/05 02:29:39;;;;;;;29.33;10.77;;;;;;;5.78;100.00;99737.84;1039254;28;20308;-54
2024/01/05 02:31:47;;;;;;;17.25;8.25;;;;;;;5.77;100.00;99741.50;1032489;28;20352;-55
2024/01/05 02:32:34;;;;;;;18.42;8.45;;;;;;;5.77;100.00;99737.03;1045902;28;20453;-50
2024/01/05 02:33:59;;;;;;;23.15;9.10;;;;;;;5.76;100.00;99740.69;1043535;28;20331;-55
2024/01/05 02:35:00;;;;;;;20.40;9.63;;;;;;;5.72;100.00;99733.38;1047594;28;20398;-48
2024/01/05 02:35:53;;;;;;;20.23;8.65;;;;;;;5.75;100.00;99731.16;1048979;28;20307;-55
2024/01/05 02:36:51;;;;;;;23.38;8.48;;;;;;;5.68;100.00;99733.00;1050733;28;20332;-50
2024/01/05 02:37:45;;;;;;;14.55;7.95;;;;;;;5.71;100.00;99727.28;1052302;28;20041;-46
2024/01/05 02:38:41;;;;;;;14.40;8.43;;;;;;;5.68;100.00;99725.06;1043632;28;20329;-47
2024/01/05 02:39:58;;;;;;;22.63;10.57;;;;;;;5.67;100.00;99725.28;1037406;28;20333;-51
2024/01/05 02:42:28;;;;;;;16.38;7.18;;;;;;;5.70;100.00;99728.31;1054363;28;20370;-47
2024/01/05 02:43:49;;;;;;;;;;;;;;;;;;;;;
2024/01/05 02:44:40;;;;;;;12.50;7.65;;;;;;;5.69;100.00;99708.19;1051059;28;20319;-47
2024/01/05 02:45:36;;;;;;;15.13;9.75;;;;;;;5.73;100.00;99716.50;1053834;28;20301;-55
2024/01/05 02:46:21;;;;;;;21.88;7.78;;;;;;;5.75;100.00;99712.66;1051876;28;20294;-55
2024/01/05 02:47:20;;;;;;;15.35;8.10;;;;;;;5.75;100.00;99712.66;1042844;28;20672;-55
2024/01/05 02:48:20;;;;;;;18.42;8.52;;;;;;;5.84;100.00;99710.56;1049054;28;20280;-55
2024/01/05 02:49:20;;;;;;;19.05;8.52;;;;;;;5.81;100.00;99717.09;1042266;28;20829;-49
2024/01/05 02:50:29;;;;;;;13.57;6.68;;;;;;;5.89;100.00;99698.34;1040318;28;20905;-55
2024/01/05 02:51:44;;;;;;;22.15;7.50;;;;;;;5.89;100.00;99703.66;1051145;28;20302;-49
2024/01/05 02:52:50;;;;;;;17.08;7.68;;;;;;;5.91;100.00;99702.63;1039119;28;20304;-47
2024/01/05 02:53:31;;;;;;;22.13;8.30;;;;;;;5.84;100.00;99705.28;1036445;28;20343;-51
2024/01/05 02:54:37;;;;;;;21.05;7.75;;;;;;;5.87;100.00;99702.22;1047172;28;20290;-52
2024/01/05 02:55:34;;;;;;;22.05;8.18;;;;;;;5.85;100.00;99706.91;1039891;28;20382;-56
2024/01/05 02:57:07;;;;;;;13.05;7.32;;;;;;;5.82;100.00;99702.84;1046318;28;20331;-53
2024/01/05 02:57:52;;;;;;;15.95;6.50;;;;;;;5.80;100.00;99704.91;1039814;28;20358;-47
2024/01/05 02:58:59;;;;;;;18.55;7.35;;;;;;;5.74;100.00;99700.44;1032095;28;20336;-52
2024/01/05 02:59:57;;;;;;;13.07;6.88;;;;;;;5.87;100.00;99689.81;1041756;28;21734;-55
2024/01/05 03:00:58;;;;;;;24.63;7.63;;;;;;;5.82;100.00;99699.41;1029470;28;20326;-48
2024/01/05 03:02:01;;;;;;;20.30;7.97;;;;;;;5.82;100.00;99691.47;1019899;29;20312;-50
2024/01/05 03:02:56;;;;;;;17.65;6.78;;;;;;;5.83;100.00;99693.91;1019558;28;20338;-49
2024/01/05 03:03:51;;;;;;;15.13;6.75;;;;;;;5.81;100.00;99701.25;1024090;29;20096;-46
2024/01/05 03:04:53;;;;;;;19.42;8.05;;;;;;;5.80;100.00;99699.63;1032833;28;20322;-54
2024/01/05 03:05:36;;;;;;;20.05;7.38;;;;;;;5.79;100.00;99702.47;1032166;28;20305;-55
2024/01/05 03:06:34;;;;;;;19.05;7.05;;;;;;;5.84;100.00;99690.25;1031937;28;20325;-55
2024/01/05 03:07:27;;;;;;;15.88;7.43;;;;;;;5.82;100.00;99697.56;1028531;28;20373;-55
2024/01/05 03:08:31;;;;;;;19.60;8.80;;;;;;;5.79;100.00;99707.75;1023883;28;20377;-53
2024/01/05 03:09:13;;;;;;;17.33;6.78;;;;;;;5.76;100.00;99698.44;1025735;29;20338;-55
2024/01/05 03:10:00;;;;;;;19.25;8.30;;;;;;;5.78;100.00;99690.28;1023650;29;20617;-47
2024/01/05 03:11:24;;;;;;;12.55;7.75;;;;;;;5.71;100.00;99692.94;1029931;28;20302;-55
2024/01/05 03:12:32;;;;;;;15.73;7.07;;;;;;;5.77;100.00;99691.31;1027623;28;20314;-48
2024/01/05 03:13:10;;;;;;;16.00;7.25;;;;;;;5.71;100.00;99685.03;1019507;28;20692;-49
2024/01/05 03:14:51;;;;;;;13.73;7.45;;;;;;;5.74;100.00;99684.59;1017386;29;20304;-55
2024/01/05 03:15:38;;;;;;;10.70;5.85;;;;;;;5.70;100.00;99678.13;1024601;28;20400;-46
2024/01/05 03:16:53;;;;;;;10.38;5.95;;;;;;;5.72;100.00;99691.91;1019390;29;20300;-47
2024/01/05 03:19:12;;;;;;;6.78;4.40;;;;;;;5.69;100.00;99683.63;1030159;28;20339;-46
2024/01/05 03:20:09;;;;;;;14.27;6.30;;;;;;;5.70;100.00;99686.03;1028174;28;20575;-55
2024/01/05 03:21:08;;;;;;;15.38;5.93;;;;;;;5.64;100.00;99676.34;1024563;28;20310;-54
2024/01/05 03:21:58;;;;;;;17.60;6.47;;;;;;;5.62;100.00;99673.09;1025610;28;20313;-49
2024/01/05 03:23:19;;;;;;;15.93;5.82;;;;;;;5.59;100.00;99676.16;1019743;29;20305;-54
2024/01/05 03:24:08;;;;;;;18.73;6.30;;;;;;;5.53;100.00;99677.81;1029687;28;20313;-55
2024/01/05 03:25:02;;;;;;;13.48;5.15;;;;;;;5.60;100.00;99680.44;1028863;28;20400;-55
2024/01/05 03:26:50;;;;;;;10.60;5.95;;;;;;;5.55;100.00;99672.34;1022441;28;20303;-48
2024/01/05 03:27:39;;;;;;;8.93;4.82;;;;;;;5.53;100.00;99667.25;1032623;28;20846;-52
2024/01/05 03:28:37;;;;;;;18.33;5.75;;;;;;;5.61;100.00;99676.75;1025321;29;20920;-45
2024/01/05 03:29:23;;;;;;;12.38;5.95;;;;;;;5.67;100.00;99662.69;1023463;29;20430;-47
2024/01/05 03:31:32;;;;;;;12.32;4.88;;;;;;;5.67;100.00;99667.97;1021229;29;20318;-46
2024/01/05 03:32:40;;;;;;;11.73;4.90;;;;;;;5.66;100.00;99666.34;1018086;29;20813;-54
2024/01/05 03:33:41;;;;;;;15.95;5.53;;;;;;;5.70;100.00;99664.91;1017435;29;20059;-49
2024/01/05 03:34:31;;;;;;;19.42;7.53;;;;;;;5.68;100.00;99659.03;1020539;29;20303;-55
2024/01/05 03:36:56;;;;;;;13.55;6.25;;;;;;;5.59;100.00;99655.03;1017064;29;20299;-46
2024/01/05 03:38:06;;;;;;;17.83;6.57;;;;;;;5.57;100.00;99657.06;1022307;29;20307;-48
2024/01/05 03:39:07;;;;;;;13.77;5.18;;;;;;;5.56;100.00;99661.56;1017429;29;20316;-56
2024/01/05 03:40:23;;;;;;;14.00;5.53;;;;;;;5.52;100.00;99654.28;1037865;28;20371;-55
2024/01/05 03:41:29;;;;;;;16.08;5.32;;;;;;;5.54;100.00;99650.41;1035757;28;20320;-48
2024/01/05 03:42:31;;;;;;;7.60;4.97;;;;;;;5.52;100.00;99649.00;1027476;28;20724;-55
2024/01/05 03:43:32;;;;;;;14.20;6.05;;;;;;;5.46;100.00;99652.44;1029805;28;20663;-55
2024/01/05 03:44:04;;;;;;;7.45;5.20;;;;;;;5.53;100.00;99647.97;1041536;28;20274;-55
2024/01/05 03:44:35;;;;;;;13.85;5.45;;;;;;;5.52;100.00;99638.44;1042653;28;20287;-55
2024/01/05 03:45:07;;;;;;;20.55;5.10;;;;;;;5.54;100.00;99641.66;1046840;28;20287;-55
2024/01/05 03:45:39;;;;;;;8.70;5.60;;;;;;;5.54;100.00;99641.66;1047685;28;20302;-49
2024/01/05 03:46:12;;;;;;;11.98;6.65;;;;;;;5.55;100.00;99644.09;1046850;28;20309;-47
2024/01/05 03:46:43;;;;;;;21.17;9.25;;;;;;;5.56;100.00;99639.63;1046481;28;20298;-46
2024/01/05 03:47:15;;;;;;;16.33;5.30;;;;;;;5.52;100.00;99638.44;1047109;28;20672;-48
2024/01/05 03:47:47;;;;;;;17.55;8.13;;;;;;;5.45;100.00;99635.00;1047000;28;20311;-48
2024/01/05 03:48:18;;;;;;;15.93;5.88;;;;;;;5.47;100.00;99635.59;1042342;28;20856;-49
2024/01/05 03:48:50;;;;;;;12.27;5.75;;;;;;;5.42;100.00;99640.69;1043051;28;20307;-48
2024/01/05 03:49:22;;;;;;;15.18;5.15;;;;;;;5.46;100.00;99633.97;1042470;28;20303;-47
2024/01/05 03:49:54;;;;;;;14.27;4.95;;;;;;;5.47;100.00;99630.31;1042940;28;20399;-45
2024/01/05 03:50:26;;;;;;;7.63;4.75;;;;;;;5.53;100.00;99638.22;1041098;28;20790;-47
2024/01/05 03:50:57;;;;;;;15.25;4.88;;;;;;;5.55;100.00;99635.34;1043391;28;20332;-49
2024/01/05 03:51:29;;;;;;;17.25;5.53;;;;;;;5.55;100.00;99633.53;1046530;28;20792;-47
2024/01/05 03:52:01;;;;;;;14.45;5.60;;;;;;;5.55;100.00;99635.34;1047073;28;20299;-47
2024/01/05 03:52:32;;;;;;;19.33;7.22;;;;;;;5.59;100.00;99633.91;1046970;28;20314;-47
2024/01/05 03:53:04;;;;;;;12.70;6.20;;;;;;;5.62;100.00;99628.19;1046759;28;20290;-50
2024/01/05 03:53:36;;;;;;;13.07;5.53;;;;;;;5.64;100.00;99628.78;1047273;28;20302;-55
2024/01/05 03:54:07;;;;;;;16.35;5.75;;;;;;;5.59;100.00;99631.25;1047488;28;20326;-55
2024/01/05 03:54:39;;;;;;;9.85;6.15;;;;;;;5.63;100.00;99624.53;1046700;28;20402;-55
2024/01/05 03:55:11;;;;;;;20.35;6.55;;;;;;;5.62;100.00;99622.91;1047063;28;20448;-55
2024/01/05 03:55:42;;;;;;;16.35;6.53;;;;;;;5.61;100.00;99629.22;1046955;28;20295;-56
2024/01/05 03:56:14;;;;;;;16.70;6.50;;;;;;;5.63;100.00;99631.63;1042360;28;20303;-55
2024/01/05 03:57:04;;;;;;;12.50;5.90;;;;;;;5.64;100.00;99631.44;1043058;28;20454;-60
2024/01/05 03:57:36;;;;;;;12.90;5.00;;;;;;;5.69;100.00;99622.84;1042763;28;20377;-55
2024/01/05 03:58:07;;;;;;;14.43;5.72;;;;;;;5.70;100.00;99630.56;1045773;28;20302;-56
2024/01/05 03:58:39;;;;;;;18.35;5.97;;;;;;;5.70;100.00;99627.91;1047320;28;20356;-49
2024/01/05 03:59:10;;;;;;;19.98;5.80;;;;;;;5.67;100.00;99625.72;1046848;28;20339;-48
2024/01/05 03:59:45;;;;;;;18.00;5.35;;;;;;;5.73;100.00;99624.84;1046579;28;20334;-46
2024/01/05 04:00:17;;;;;;;18.85;7.07;;;;;;;5.71;100.00;99618.97;1046632;28;20676;-48
2024/01/05 04:00:48;;;;;;;19.52;5.55;;;;;;;5.70;100.00;99624.47;1047108;28;20294;-49
2024/01/05 04:01:21;;;;;;;23.92;5.82;;;;;;;5.70;100.00;99622.63;1046281;28;20899;-48
2024/01/05 04:01:53;;;;;;;15.40;5.28;;;;;;;5.72;100.00;99617.94;1046973;28;20302;-48
2024/01/05 04:02:24;;;;;;;15.65;6.65;;;;;;;5.69;100.00;99615.75;1046844;28;20954;-49
2024/01/05 04:02:56;;;;;;;13.25;5.95;;;;;;;5.80;100.00;99623.00;1046800;28;20700;-49
2024/01/05 04:03:28;;;;;;;18.33;7.53;;;;;;;5.76;100.00;99613.88;1047150;28;20307;-48
2024/01/05 04:04:00;;;;;;;23.48;6.65;;;;;;;5.80;100.00;99615.06;1047154;28;20776;-48
2024/01/05 04:04:32;;;;;;;11.98;5.80;;;;;;;5.81;100.00;99619.31;1048655;28;20828;-50
2024/01/05 04:05:04;;;;;;;17.95;6.20;;;;;;;5.80;100.00;99615.06;1051557;28;20301;-47
2024/01/05 04:05:36;;;;;;;16.75;6.57;;;;;;;5.82;100.00;99618.31;1051908;28;20306;-49
2024/01/05 04:06:07;;;;;;;9.50;5.00;;;;;;;5.82;100.00;99610.38;1051667;28;20312;-47
2024/01/05 04:06:40;;;;;;;13.15;5.65;;;;;;;5.81;100.00;99616.69;1051325;28;21517;-48
2024/01/05 04:07:12;;;;;;;15.40;6.45;;;;;;;5.83;100.00;99609.34;1051768;28;20301;-48
2024/01/05 04:07:44;;;;;;;15.85;6.88;;;;;;;5.87;100.00;99615.81;1051993;28;20309;-47
2024/01/05 04:08:15;;;;;;;17.70;6.03;;;;;;;5.84;100.00;99610.16;1051885;28;20342;-49
2024/01/05 04:08:47;;;;;;;17.55;6.32;;;;;;;5.86;100.00;99608.91;1051606;28;20285;-55
2024/01/05 04:09:18;;;;;;;20.52;5.50;;;;;;;5.91;100.00;99610.13;1051727;28;20342;-56
2024/01/05 04:09:50;;;;;;;14.70;5.53;;;;;;;5.89;100.00;99613.78;1051333;28;20700;-56
2024/01/05 04:10:22;;;;;;;18.13;5.28;;;;;;;5.88;100.00;99612.16;1051520;28;20525;-56
2024/01/05 04:10:53;;;;;;;13.38;6.15;;;;;;;5.92;100.00;99607.25;1051602;28;20282;-56
2024/01/05 04:11:29;;;;;;;17.08;6.63;;;;;;;5.89;100.00;99603.22;1051159;28;20784;-47
2024/01/05 04:12:01;;;;;;;19.73;6.07;;;;;;;5.94;100.00;99599.13;1051570;28;20380;-50
2024/01/05 04:12:33;;;;;;;18.00;5.95;;;;;;;5.99;100.00;99604.56;1051801;28;20290;-49
2024/01/05 04:13:05;;;;;;;16.55;4.95;;;;;;;6.01;100.00;99600.66;1051816;28;20301;-50
2024/01/05 04:13:36;;;;;;;14.30;5.70;;;;;;;6.01;100.00;99605.16;1051718;28;20309;-48
2024/01/05 04:14:08;;;;;;;10.77;5.13;;;;;;;6.04;100.00;99602.91;1051669;28;20300;-48
2024/01/05 04:14:40;;;;;;;17.67;6.65;;;;;;;6.05;100.00;99598.44;1051338;28;20316;-49
2024/01/05 04:15:11;;;;;;;11.73;5.38;;;;;;;6.05;100.00;99601.06;1051742;28;20293;-47
2024/01/05 04:15:43;;;;;;;13.57;7.35;;;;;;;6.01;100.00;99595.38;1051519;28;20313;-50
2024/01/05 04:16:15;;;;;;;9.10;4.40;;;;;;;6.03;100.00;99603.13;1051669;28;20289;-49
2024/01/05 04:16:46;;;;;;;15.15;5.45;;;;;;;6.06;100.00;99602.69;1051929;28;20672;-46
2024/01/05 04:17:18;;;;;;;22.15;6.38;;;;;;;6.04;100.00;99592.34;1049801;28;20386;-50
2024/01/05 04:17:50;;;;;;;12.32;5.65;;;;;;;6.08;100.00;99592.72;1051434;28;20286;-49
2024/01/05 04:18:22;;;;;;;26.13;5.88;;;;;;;6.09;100.00;99589.03;1051504;28;20305;-46
2024/01/05 04:18:54;;;;;;;9.30;5.05;;;;;;;6.12;100.00;99596.53;1051642;28;20306;-48
2024/01/05 04:19:25;;;;;;;20.35;5.93;;;;;;;6.11;100.00;99594.91;1051615;28;20309;-56
2024/01/05 04:19:57;;;;;;;18.45;5.53;;;;;;;6.17;100.00;99594.03;1051035;28;20321;-54
2024/01/05 04:20:29;;;;;;;17.45;5.40;;;;;;;6.12;100.00;99591.25;1051928;28;20652;-55
2024/01/05 04:21:00;;;;;;;16.50;5.10;;;;;;;6.11;100.00;99592.28;1052004;28;20329;-56
2024/01/05 04:21:32;;;;;;;12.52;5.78;;;;;;;6.12;100.00;99592.06;1050922;28;20298;-55
2024/01/05 04:22:05;;;;;;;14.60;5.40;;;;;;;6.11;100.00;99589.63;1051787;28;20301;-47
2024/01/05 04:22:37;;;;;;;12.70;5.43;;;;;;;6.19;100.00;99589.34;1051082;28;20313;-47
2024/01/05 04:23:08;;;;;;;17.10;5.13;;;;;;;6.21;100.00;99589.94;1051208;28;20329;-48
2024/01/05 04:23:41;;;;;;;15.63;5.85;;;;;;;6.21;100.00;99589.94;1051186;28;20301;-49
2024/01/05 04:24:13;;;;;;;13.27;5.15;;;;;;;6.21;100.00;99589.94;1051474;28;20384;-46
2024/01/05 04:24:44;;;;;;;23.38;6.60;;;;;;;6.18;100.00;99587.72;1051308;28;20290;-49
2024/01/05 04:25:16;;;;;;;20.65;6.40;;;;;;;6.22;100.00;99585.44;1051648;28;20298;-48
2024/01/05 04:25:48;;;;;;;18.70;5.13;;;;;;;6.23;100.00;99587.88;1051978;28;20289;-49
2024/01/05 04:26:20;;;;;;;23.05;7.20;;;;;;;6.22;100.00;99583.59;1051557;28;20298;-46
2024/01/05 04:26:51;;;;;;;26.23;5.75;;;;;;;6.19;100.00;99586.69;1051349;28;20371;-47
2024/01/05 04:27:23;;;;;;;12.25;5.05;;;;;;;6.17;100.00;99581.63;1051716;28;20294;-50
2024/01/05 04:27:55;;;;;;;22.55;5.63;;;;;;;6.19;100.00;99579.56;1051554;28;20298;-48
2024/01/05 04:28:26;;;;;;;15.30;5.53;;;;;;;6.20;100.00;99583.03;1051359;28;20411;-48
2024/01/05 04:28:58;;;;;;;15.00;5.10;;;;;;;6.17;100.00;99581.63;1050280;28;20306;-48
2024/01/05 04:29:30;;;;;;;18.77;5.22;;;;;;;6.23;100.00;99581.78;1051670;28;20298;-48
2024/01/05 04:30:03;;;;;;;13.57;6.30;;;;;;;6.30;100.00;99577.22;1050999;28;20290;-50